Time;durP1;ratioP1;P1;durP2;ratioP2;P2;SDS_P1;SDS_P2;PMS_P1;PMS_P2;Temp;Humidity;BMP_temperature;BMP_pressure;BME280_temperature;BME280_humidity;BME280_pressure;Samples;Min_cycle;Max_cycle;Signal;HPM_P1;HPM_P2
2022/05/03 00:02:41;;;;;;;18.20;9.77;;;8.90;99.90;;;;;;5051869;28;20194;-59
2022/05/03 00:05:30;;;;;;;20.53;10.90;;;8.90;99.90;;;;;;5051874;28;20712;-62
2022/05/03 00:07:58;;;;;;;19.33;10.70;;;9.00;99.90;;;;;;5052932;28;20187;-58
2022/05/03 00:10:41;;;;;;;19.77;10.43;;;9.10;99.90;;;;;;5052117;28;20722;-58
2022/05/03 00:13:09;;;;;;;17.87;11.10;;;9.10;99.90;;;;;;5052380;28;20200;-58
2022/05/03 00:15:38;;;;;;;24.27;11.00;;;9.20;99.90;;;;;;5050350;28;20292;-59
2022/05/03 00:18:05;;;;;;;19.20;10.57;;;9.20;99.90;;;;;;5051403;28;20208;-60
2022/05/03 00:20:32;;;;;;;21.93;10.77;;;9.20;99.90;;;;;;5052279;28;20197;-59
2022/05/03 00:22:58;;;;;;;17.17;9.80;;;9.20;99.90;;;;;;5050625;28;20259;-70
2022/05/03 00:25:25;;;;;;;16.53;9.93;;;9.30;99.90;;;;;;5052018;28;20257;-60
2022/05/03 00:27:51;;;;;;;20.30;10.37;;;9.30;99.90;;;;;;5052481;28;20678;-58
2022/05/03 00:30:17;;;;;;;20.63;10.03;;;9.40;99.90;;;;;;5050928;28;20990;-60
2022/05/03 00:32:43;;;;;;;18.30;10.97;;;9.40;99.90;;;;;;5052127;28;20193;-60
2022/05/03 00:35:10;;;;;;;20.17;9.83;;;9.40;99.90;;;;;;5052274;28;20383;-58
2022/05/03 00:37:37;;;;;;;19.00;10.43;;;9.50;99.90;;;;;;5051665;28;20246;-61
2022/05/03 00:40:04;;;;;;;16.17;10.07;;;9.40;99.90;;;;;;5052101;28;20190;-58
2022/05/03 00:42:43;;;;;;;20.93;10.70;;;9.40;99.90;;;;;;5052140;28;20270;-58
2022/05/03 00:45:27;;;;;;;16.93;10.57;;;9.40;99.90;;;;;;5051190;28;20192;-58
2022/05/03 00:48:42;;;;;;;17.93;9.97;;;9.40;99.90;;;;;;5051576;28;20188;-58
2022/05/03 00:51:14;;;;;;;16.17;10.20;;;9.30;99.90;;;;;;5051328;28;20186;-59
2022/05/03 00:53:58;;;;;;;16.27;9.80;;;9.30;99.90;;;;;;5051894;28;20651;-58
2022/05/03 00:56:48;;;;;;;20.03;10.40;;;9.20;99.90;;;;;;5051175;28;20187;-59
2022/05/03 00:59:22;;;;;;;18.40;10.00;;;9.20;99.90;;;;;;5050829;28;20200;-59
2022/05/03 01:02:05;;;;;;;15.77;9.43;;;9.10;99.90;;;;;;5050077;28;20528;-59
2022/05/03 01:05:10;;;;;;;19.90;11.43;;;9.10;99.90;;;;;;5050245;28;20198;-58
2022/05/03 01:08:04;;;;;;;18.47;9.73;;;9.10;99.90;;;;;;5051448;28;20270;-58
2022/05/03 01:10:51;;;;;;;17.87;10.67;;;9.10;99.90;;;;;;5042066;28;20210;-59
2022/05/03 01:13:50;;;;;;;16.03;10.27;;;9.10;99.90;;;;;;5049538;28;20190;-60
2022/05/03 01:16:34;;;;;;;22.80;10.67;;;9.00;99.90;;;;;;5051153;28;20187;-60
2022/05/03 01:19:21;;;;;;;18.73;10.30;;;9.00;99.90;;;;;;5051019;28;20211;-66
2022/05/03 01:21:59;;;;;;;24.97;12.30;;;8.90;99.90;;;;;;5051282;28;20236;-61
2022/05/03 01:24:50;;;;;;;21.77;10.50;;;8.90;99.90;;;;;;5052248;28;20180;-59
2022/05/03 01:27:28;;;;;;;20.40;10.10;;;8.90;99.90;;;;;;5052040;28;20237;-57
2022/05/03 01:29:58;;;;;;;17.10;8.90;;;8.90;99.90;;;;;;5052213;28;20197;-59
2022/05/03 01:32:24;;;;;;;16.97;9.23;;;8.80;99.90;;;;;;5051810;28;20183;-58
2022/05/03 01:34:52;;;;;;;20.70;10.50;;;8.80;99.90;;;;;;5051808;28;20180;-60
2022/05/03 01:37:33;;;;;;;17.97;9.67;;;8.80;99.90;;;;;;5051502;28;20289;-63
2022/05/03 01:40:07;;;;;;;16.80;9.40;;;8.80;99.90;;;;;;5051478;28;20179;-59
2022/05/03 01:42:33;;;;;;;20.57;10.30;;;8.70;99.90;;;;;;5051163;28;20290;-61
2022/05/03 01:45:09;;;;;;;15.70;8.80;;;8.70;99.90;;;;;;5051924;28;20179;-59
2022/05/03 01:47:47;;;;;;;16.53;9.17;;;8.60;99.90;;;;;;5051610;28;20281;-59
2022/05/03 01:50:21;;;;;;;14.83;8.80;;;8.60;99.90;;;;;;5051390;28;20191;-59
2022/05/03 01:53:19;;;;;;;18.77;8.80;;;8.70;99.90;;;;;;5051760;28;20233;-58
2022/05/03 01:56:12;;;;;;;14.83;8.83;;;8.90;99.90;;;;;;5007711;28;20191;-61
2022/05/03 01:59:07;;;;;;;24.03;9.93;;;8.90;99.90;;;;;;5052109;28;20355;-57
2022/05/03 02:01:41;;;;;;;20.07;11.07;;;9.00;99.90;;;;;;5051714;28;20187;-58
2022/05/03 02:04:07;;;;;;;24.50;10.80;;;8.90;99.90;;;;;;5051113;28;20633;-58
2022/05/03 02:06:48;;;;;;;20.70;11.23;;;8.90;99.90;;;;;;5051602;28;20313;-58
2022/05/03 02:09:17;;;;;;;17.00;10.50;;;8.90;99.90;;;;;;5051077;28;20198;-60
2022/05/03 02:12:01;;;;;;;22.23;11.40;;;8.80;99.90;;;;;;5051373;28;20269;-59
2022/05/03 02:14:46;;;;;;;18.83;11.30;;;8.80;99.90;;;;;;5051122;28;20619;-58
2022/05/03 02:17:32;;;;;;;20.30;11.87;;;8.80;99.90;;;;;;5040177;28;20222;-59
2022/05/03 02:20:17;;;;;;;25.93;11.70;;;8.70;99.90;;;;;;5051390;28;20183;-60
2022/05/03 02:23:36;;;;;;;27.50;13.23;;;8.70;99.90;;;;;;5050853;28;20223;-58
2022/05/03 02:26:20;;;;;;;21.23;10.83;;;8.70;99.90;;;;;;4989572;28;20600;-62
2022/05/03 02:28:53;;;;;;;17.83;10.43;;;8.70;99.90;;;;;;5045574;28;20206;-59
2022/05/03 02:31:32;;;;;;;54.80;12.50;;;8.70;99.90;;;;;;5050598;28;20174;-58
2022/05/03 02:34:20;;;;;;;20.03;10.57;;;8.80;99.90;;;;;;5051262;28;20631;-58
2022/05/03 02:37:00;;;;;;;24.97;10.37;;;8.70;99.90;;;;;;5050895;28;20179;-58
2022/05/03 02:39:31;;;;;;;14.93;9.97;;;8.80;99.90;;;;;;5050364;28;20251;-58
2022/05/03 02:42:01;;;;;;;19.60;10.60;;;8.80;99.90;;;;;;5051136;28;20266;-59
2022/05/03 02:44:33;;;;;;;19.23;11.00;;;8.70;99.90;;;;;;5050743;28;20226;-59
2022/05/03 02:47:08;;;;;;;18.27;10.73;;;8.80;99.90;;;;;;5051040;28;20185;-59
2022/05/03 02:49:37;;;;;;;31.80;12.70;;;8.80;99.90;;;;;;5049716;28;20184;-59
2022/05/03 02:52:21;;;;;;;19.50;11.03;;;8.80;99.90;;;;;;5051861;28;20176;-60
2022/05/03 02:55:01;;;;;;;19.83;11.17;;;8.90;99.90;;;;;;5055042;28;20233;-60
2022/05/03 02:57:50;;;;;;;22.87;11.23;;;8.90;99.90;;;;;;5054247;28;20239;-59
2022/05/03 03:03:27;;;;;;;17.83;10.43;;;9.00;99.90;;;;;;5054629;28;20315;-58
2022/05/03 03:06:01;;;;;;;25.27;11.70;;;9.00;99.90;;;;;;5054383;28;20214;-59
2022/05/03 03:08:32;;;;;;;22.30;11.60;;;9.00;99.90;;;;;;5054387;28;20208;-59
2022/05/03 03:11:03;;;;;;;25.03;10.70;;;9.10;99.90;;;;;;5054460;28;20250;-60
2022/05/03 03:13:47;;;;;;;22.87;11.90;;;9.10;99.90;;;;;;5054220;28;20780;-59
2022/05/03 03:16:14;;;;;;;21.40;10.67;;;9.10;99.90;;;;;;5054102;28;20669;-59
2022/05/03 03:18:46;;;;;;;29.73;12.87;;;9.20;99.90;;;;;;5054158;28;20248;-58
2022/05/03 03:21:13;;;;;;;20.87;11.33;;;9.20;99.90;;;;;;5053346;28;20184;-61
2022/05/03 03:23:40;;;;;;;25.73;11.90;;;9.20;99.90;;;;;;5053990;28;20662;-59
2022/05/03 03:26:08;;;;;;;22.20;11.33;;;9.20;99.90;;;;;;5052988;28;20274;-69
2022/05/03 03:28:36;;;;;;;25.00;12.27;;;9.20;99.90;;;;;;5054057;28;20268;-59
2022/05/03 03:31:02;;;;;;;22.13;11.50;;;9.30;99.90;;;;;;5054331;28;20202;-59
2022/05/03 03:33:34;;;;;;;25.97;12.20;;;9.30;99.90;;;;;;5051939;28;20192;-59
2022/05/03 03:36:03;;;;;;;19.23;11.90;;;9.40;99.90;;;;;;5053815;28;20212;-59
2022/05/03 03:38:55;;;;;;;19.47;11.33;;;9.30;99.90;;;;;;5053108;28;20246;-59
2022/05/03 03:41:21;;;;;;;23.83;11.67;;;9.30;99.90;;;;;;5050356;28;20279;-59
2022/05/03 03:43:46;;;;;;;22.30;12.27;;;9.30;99.90;;;;;;5053689;28;20672;-58
2022/05/03 03:46:12;;;;;;;20.40;11.77;;;9.40;99.90;;;;;;5052051;28;20654;-58
2022/05/03 03:48:39;;;;;;;50.17;13.30;;;9.40;99.90;;;;;;5053811;28;20185;-61
2022/05/03 03:51:05;;;;;;;24.83;10.87;;;9.40;99.90;;;;;;5053432;28;20433;-59
2022/05/03 03:53:32;;;;;;;21.73;11.30;;;9.50;99.90;;;;;;5052616;28;20188;-58
2022/05/03 03:56:00;;;;;;;25.93;11.40;;;9.50;99.90;;;;;;5054005;28;20299;-58
2022/05/03 03:58:26;;;;;;;26.47;11.73;;;9.60;99.90;;;;;;5052993;28;20217;-59
2022/05/03 04:00:52;;;;;;;19.93;10.73;;;9.70;99.90;;;;;;5051486;28;20182;-59
2022/05/03 04:03:18;;;;;;;47.03;12.40;;;9.70;99.90;;;;;;5052063;28;20200;-59
2022/05/03 04:05:46;;;;;;;19.67;11.13;;;9.70;99.90;;;;;;5052087;28;20181;-60
2022/05/03 04:08:11;;;;;;;24.60;10.90;;;9.80;99.90;;;;;;5052422;28;20197;-58
2022/05/03 04:10:37;;;;;;;22.60;10.27;;;9.90;99.90;;;;;;5053319;28;20244;-59
2022/05/03 04:13:04;;;;;;;30.63;11.87;;;10.00;99.90;;;;;;5052712;28;20194;-60
2022/05/03 04:15:31;;;;;;;13.87;9.33;;;10.10;99.90;;;;;;5052548;28;20198;-60
2022/05/03 04:17:57;;;;;;;27.87;10.07;;;10.20;99.90;;;;;;5051578;28;20706;-60
2022/05/03 04:20:22;;;;;;;23.03;10.50;;;10.30;99.90;;;;;;5050925;28;20210;-59
2022/05/03 04:22:48;;;;;;;35.93;11.93;;;10.30;99.90;;;;;;5052107;28;20879;-59
2022/05/03 04:25:14;;;;;;;17.03;9.57;;;10.30;99.90;;;;;;5052059;28;20215;-62
2022/05/03 04:27:40;;;;;;;18.17;10.07;;;10.30;99.90;;;;;;5051355;28;20197;-61
2022/05/03 04:30:06;;;;;;;32.50;9.77;;;10.40;99.90;;;;;;5052123;28;20234;-60
2022/05/03 04:32:33;;;;;;;23.70;10.90;;;10.40;99.90;;;;;;5051020;28;20270;-60
2022/05/03 04:34:59;;;;;;;21.27;10.00;;;10.50;99.90;;;;;;5052308;28;20191;-62
2022/05/03 04:37:26;;;;;;;16.17;9.63;;;10.50;99.90;;;;;;5051624;28;20313;-59
2022/05/03 04:39:52;;;;;;;35.47;12.13;;;10.50;99.90;;;;;;5052191;28;20185;-59
2022/05/03 04:42:18;;;;;;;22.50;9.70;;;10.60;99.90;;;;;;5051829;28;20178;-59
2022/05/03 04:44:43;;;;;;;24.97;10.00;;;10.80;99.90;;;;;;5052185;28;20175;-60
2022/05/03 04:47:09;;;;;;;26.87;13.13;;;10.90;99.90;;;;;;5052530;28;20203;-59
2022/05/03 04:49:35;;;;;;;16.33;9.73;;;11.10;99.90;;;;;;5050319;28;20194;-63
2022/05/03 04:52:01;;;;;;;32.27;10.60;;;11.10;99.90;;;;;;5051940;28;20634;-60
2022/05/03 04:54:27;;;;;;;26.63;10.50;;;11.20;99.90;;;;;;5051581;28;20176;-58
2022/05/03 04:57:02;;;;;;;25.53;10.70;;;11.20;99.90;;;;;;5051811;28;20188;-54
2022/05/03 04:59:28;;;;;;;32.77;11.57;;;11.30;99.90;;;;;;5051804;28;20313;-53
2022/05/03 05:01:53;;;;;;;34.50;13.77;;;11.30;99.90;;;;;;5052426;28;20650;-56
2022/05/03 05:04:19;;;;;;;24.30;10.47;;;11.50;99.90;;;;;;5051729;28;20193;-64
2022/05/03 05:06:45;;;;;;;25.97;10.30;;;11.50;99.90;;;;;;5052210;28;20201;-60
2022/05/03 05:09:11;;;;;;;20.20;9.20;;;11.50;99.90;;;;;;5051189;28;20241;-64
2022/05/03 05:11:38;;;;;;;19.10;9.80;;;11.50;99.90;;;;;;5051402;28;20609;-59
2022/05/03 05:14:03;;;;;;;27.73;12.07;;;11.60;99.90;;;;;;5050983;28;20423;-60
2022/05/03 05:16:29;;;;;;;23.50;10.43;;;11.60;99.90;;;;;;5050482;28;20185;-61
2022/05/03 05:18:55;;;;;;;14.57;9.53;;;11.60;99.90;;;;;;5045582;28;20228;-59
2022/05/03 05:21:21;;;;;;;18.13;10.43;;;11.60;99.90;;;;;;5045729;28;20878;-58
2022/05/03 05:23:47;;;;;;;18.23;9.50;;;11.60;99.90;;;;;;5049322;28;20201;-58
2022/05/03 05:26:12;;;;;;;19.20;10.70;;;11.60;99.90;;;;;;5050458;28;20188;-60
2022/05/03 05:28:38;;;;;;;21.57;10.30;;;11.60;99.90;;;;;;5050274;28;20339;-60
2022/05/03 05:31:04;;;;;;;21.47;10.67;;;11.60;99.90;;;;;;5049203;28;20216;-61
2022/05/03 05:33:31;;;;;;;48.20;15.00;;;11.70;99.90;;;;;;5050020;28;20214;-62
2022/05/03 05:35:58;;;;;;;22.13;11.40;;;11.80;99.90;;;;;;5049841;28;20204;-63
2022/05/03 05:38:23;;;;;;;25.03;10.97;;;12.00;99.90;;;;;;5031769;28;20327;-59
2022/05/03 05:40:50;;;;;;;20.77;11.07;;;12.10;99.90;;;;;;5050085;28;20191;-59
2022/05/03 05:43:16;;;;;;;20.60;10.87;;;12.30;99.90;;;;;;5050100;28;20228;-59
2022/05/03 05:45:42;;;;;;;28.17;12.23;;;12.40;99.90;;;;;;5050210;28;20184;-59
2022/05/03 05:48:09;;;;;;;19.50;11.30;;;12.70;99.90;;;;;;5049047;28;20287;-60
2022/05/03 05:50:36;;;;;;;25.37;10.93;;;12.90;99.90;;;;;;5049320;28;20201;-56
2022/05/03 05:55:46;;;;;;;19.73;9.77;;;13.30;99.90;;;;;;5049083;28;20285;-57
2022/05/03 05:58:12;;;;;;;28.47;10.47;;;13.50;99.90;;;;;;5048017;28;20312;-65
2022/05/03 06:00:38;;;;;;;24.03;10.97;;;13.50;99.90;;;;;;5048931;28;20191;-60
2022/05/03 06:03:05;;;;;;;28.13;11.73;;;13.50;99.90;;;;;;5048763;28;20193;-65
2022/05/03 06:05:31;;;;;;;26.77;10.67;;;13.50;99.90;;;;;;5048003;28;20182;-56
2022/05/03 06:07:57;;;;;;;31.37;11.40;;;13.50;99.90;;;;;;5047641;28;20198;-58
2022/05/03 06:10:23;;;;;;;18.13;8.87;;;13.70;99.90;;;;;;5048581;28;20190;-56
2022/05/03 06:12:49;;;;;;;23.17;10.47;;;13.90;99.90;;;;;;5049271;28;20186;-58
2022/05/03 06:15:16;;;;;;;22.53;9.67;;;13.90;99.90;;;;;;5049367;28;20214;-58
2022/05/03 06:17:42;;;;;;;24.60;10.20;;;14.20;99.90;;;;;;5049989;28;20233;-62
2022/05/03 06:20:08;;;;;;;32.50;10.60;;;14.40;99.90;;;;;;5049510;28;20202;-59
2022/05/03 06:22:35;;;;;;;13.83;8.23;;;14.50;99.90;;;;;;5047758;28;20700;-59
2022/05/03 06:25:00;;;;;;;26.87;10.40;;;14.40;99.90;;;;;;5048268;28;20705;-59
2022/05/03 06:27:26;;;;;;;21.07;9.77;;;14.50;99.90;;;;;;5048488;28;20190;-62
2022/05/03 06:29:52;;;;;;;22.67;10.93;;;14.60;99.90;;;;;;5049669;28;20236;-55
2022/05/03 06:32:17;;;;;;;38.53;11.80;;;14.90;99.90;;;;;;5048838;28;20197;-59
2022/05/03 06:34:43;;;;;;;29.17;10.43;;;15.10;99.90;;;;;;5049126;28;20186;-61
2022/05/03 06:37:09;;;;;;;30.47;9.20;;;15.30;99.90;;;;;;5049630;28;20640;-61
2022/05/03 06:39:38;;;;;;;24.50;9.03;;;15.30;99.90;;;;;;5049345;28;20192;-59
2022/05/03 06:42:05;;;;;;;25.00;9.07;;;15.40;99.90;;;;;;5048931;28;20529;-63
2022/05/03 06:44:31;;;;;;;15.82;8.82;;;15.50;99.90;;;;;;5048545;28;20413;-60
2022/05/03 06:46:57;;;;;;;14.87;7.10;;;15.50;99.90;;;;;;5049398;28;20187;-57
2022/05/03 06:49:23;;;;;;;16.17;8.48;;;15.80;99.90;;;;;;5046875;28;20441;-61
2022/05/03 06:51:49;;;;;;;27.27;11.17;;;15.80;99.90;;;;;;5048346;28;20408;-54
2022/05/03 06:54:15;;;;;;;25.42;8.52;;;16.10;99.90;;;;;;5047545;28;20493;-58
2022/05/03 06:56:41;;;;;;;22.42;7.85;;;16.40;99.90;;;;;;5046605;28;20406;-55
2022/05/03 06:59:07;;;;;;;13.45;7.28;;;16.50;99.90;;;;;;5048310;28;20546;-53
2022/05/03 07:01:33;;;;;;;22.73;7.63;;;16.50;99.90;;;;;;5049110;28;20535;-60
2022/05/03 07:03:59;;;;;;;22.67;7.80;;;16.60;99.90;;;;;;5047606;28;20685;-58
2022/05/03 07:06:25;;;;;;;21.97;7.47;;;16.60;99.90;;;;;;5048848;28;20241;-54
2022/05/03 07:08:51;;;;;;;13.83;7.27;;;16.70;99.90;;;;;;5048945;28;20237;-61
2022/05/03 07:11:17;;;;;;;15.07;6.87;;;16.80;99.90;;;;;;5048813;28;20193;-59
2022/05/03 07:13:43;;;;;;;16.60;7.73;;;17.00;99.90;;;;;;5049347;28;20317;-59
2022/05/03 07:16:09;;;;;;;17.53;7.53;;;17.30;99.90;;;;;;5049497;28;20673;-53
2022/05/03 07:24:05;;;;;;;20.20;7.00;;;17.70;98.80;;;;;;5048872;28;20715;-56
2022/05/03 07:26:31;;;;;;;24.37;6.37;;;17.80;98.50;;;;;;5030608;28;20585;-62
2022/05/03 07:28:57;;;;;;;15.70;6.17;;;17.90;98.10;;;;;;5048817;28;20205;-63
2022/05/03 07:31:23;;;;;;;10.33;5.70;;;17.80;97.80;;;;;;5047745;28;20183;-60
2022/05/03 07:33:49;;;;;;;33.97;6.57;;;18.00;97.00;;;;;;5048400;28;20215;-63
2022/05/03 07:36:19;;;;;;;15.10;5.90;;;18.20;96.10;;;;;;5047536;28;20264;-62
2022/05/03 07:38:46;;;;;;;11.70;4.73;;;18.40;95.60;;;;;;5051081;28;20214;-60
2022/05/03 07:41:12;;;;;;;18.13;4.53;;;18.60;93.80;;;;;;5051322;28;20667;-60
2022/05/03 07:43:38;;;;;;;7.93;4.33;;;18.60;92.40;;;;;;5052103;28;20224;-59
2022/05/03 07:46:04;;;;;;;29.83;5.53;;;18.50;92.50;;;;;;5051138;28;20198;-62
2022/05/03 07:48:29;;;;;;;6.63;3.83;;;18.70;92.10;;;;;;5050191;28;20563;-60
2022/05/03 07:50:56;;;;;;;13.50;3.45;;;18.90;90.10;;;;;;5050187;28;20190;-64
2022/05/03 07:53:21;;;;;;;11.07;3.35;;;18.90;89.00;;;;;;5050477;28;20194;-59
2022/05/03 07:55:48;;;;;;;7.65;4.10;;;19.10;86.90;;;;;;5050733;28;20195;-62
2022/05/03 07:58:15;;;;;;;5.22;3.22;;;19.30;84.30;;;;;;5048136;28;20287;-66
2022/05/03 08:00:41;;;;;;;7.10;3.72;;;19.40;79.80;;;;;;5051783;28;20195;-60
2022/05/03 08:03:07;;;;;;;15.38;5.78;;;19.50;78.00;;;;;;5051599;28;20663;-63
2022/05/03 08:05:33;;;;;;;49.90;16.67;;;19.60;79.30;;;;;;5051973;28;20191;-64
2022/05/03 08:07:59;;;;;;;18.10;5.05;;;19.80;78.60;;;;;;5052368;28;20194;-61
2022/05/03 08:10:25;;;;;;;16.50;7.32;;;19.70;77.90;;;;;;5051457;28;20648;-60
2022/05/03 08:12:51;;;;;;;14.20;5.07;;;19.50;75.90;;;;;;5050320;28;20607;-62
2022/05/03 08:15:21;;;;;;;14.82;5.65;;;19.40;77.30;;;;;;5051849;28;20185;-60
2022/05/03 08:17:47;;;;;;;17.40;7.22;;;19.50;78.30;;;;;;5039907;28;20213;-61
2022/05/03 08:20:14;;;;;;;12.13;6.38;;;19.80;79.10;;;;;;5051784;28;20209;-62
2022/05/03 08:22:41;;;;;;;17.63;5.65;;;19.80;77.80;;;;;;5051376;28;20252;-61
2022/05/03 08:25:07;;;;;;;20.55;5.68;;;19.80;78.00;;;;;;5052078;28;20186;-59
2022/05/03 08:27:36;;;;;;;16.52;6.78;;;19.60;78.50;;;;;;5051123;28;20217;-61
2022/05/03 08:30:03;;;;;;;14.70;6.55;;;19.60;79.50;;;;;;5051218;28;20192;-61
2022/05/03 08:32:29;;;;;;;15.13;5.05;;;19.70;80.00;;;;;;5050679;28;21077;-61
2022/05/03 08:34:55;;;;;;;21.88;5.90;;;19.70;78.20;;;;;;5051631;28;20182;-60
2022/05/03 08:42:50;;;;;;;16.52;4.88;;;20.00;77.70;;;;;;5051300;28;20774;-60
2022/05/03 08:45:16;;;;;;;9.73;5.10;;;19.90;75.00;;;;;;5050471;28;20281;-66
2022/05/03 08:47:42;;;;;;;14.38;5.97;;;19.80;76.20;;;;;;5048967;28;20213;-61
2022/05/03 08:50:10;;;;;;;77.95;10.63;;;19.80;76.10;;;;;;5050882;28;20617;-61
2022/05/03 08:52:50;;;;;;;22.73;14.93;;;19.80;73.90;;;;;;5050909;28;20186;-62
2022/05/03 08:55:16;;;;;;;11.90;5.43;;;19.80;74.20;;;;;;5051066;28;20182;-68
2022/05/03 08:57:43;;;;;;;19.05;7.50;;;19.90;74.50;;;;;;5050307;28;20209;-62
2022/05/03 09:00:11;;;;;;;19.75;6.45;;;20.00;74.00;;;;;;5050823;28;20198;-62
2022/05/03 09:02:52;;;;;;;22.85;6.30;;;20.10;74.80;;;;;;5048409;28;20198;-59
2022/05/03 09:05:18;;;;;;;12.00;5.57;;;20.30;73.70;;;;;;5048581;28;20178;-64
2022/05/03 09:08:04;;;;;;;14.20;6.15;;;20.20;72.90;;;;;;5050649;28;20533;-59
2022/05/03 09:10:32;;;;;;;25.58;6.63;;;20.10;71.60;;;;;;5050414;28;20347;-60
2022/05/03 09:13:17;;;;;;;14.93;5.30;;;20.20;71.40;;;;;;5051132;28;20279;-60
2022/05/03 09:15:43;;;;;;;19.67;5.30;;;20.40;71.40;;;;;;5050585;28;20266;-59
2022/05/03 09:18:19;;;;;;;15.38;4.97;;;20.70;70.80;;;;;;5049705;28;20226;-61
2022/05/03 09:23:47;;;;;;;8.88;5.35;;;20.60;69.10;;;;;;5050116;28;20252;-60
2022/05/03 09:26:15;;;;;;;11.57;4.90;;;20.60;69.00;;;;;;5050616;28;20201;-61
2022/05/03 09:28:57;;;;;;;14.38;5.32;;;20.60;68.20;;;;;;5048860;28;20204;-62
2022/05/03 09:31:28;;;;;;;10.23;5.18;;;20.60;66.80;;;;;;5049551;28;20497;-61
2022/05/03 09:33:56;;;;;;;17.30;5.15;;;20.80;66.40;;;;;;5049897;28;20265;-61
2022/05/03 09:36:22;;;;;;;22.45;6.03;;;20.90;64.30;;;;;;5049445;28;20277;-60
2022/05/03 09:38:50;;;;;;;13.77;5.25;;;21.10;64.80;;;;;;5049049;28;20271;-65
2022/05/03 09:41:17;;;;;;;14.57;5.03;;;20.90;64.80;;;;;;5049627;28;20660;-62
2022/05/03 09:44:05;;;;;;;17.65;5.50;;;20.80;63.90;;;;;;5050220;28;20186;-60
2022/05/03 09:46:51;;;;;;;11.85;4.22;;;20.90;63.10;;;;;;5047678;28;20718;-61
2022/05/03 09:49:34;;;;;;;17.40;5.88;;;20.80;61.90;;;;;;5049667;28;20198;-62
2022/05/03 09:52:00;;;;;;;15.10;4.53;;;21.10;63.20;;;;;;5047964;28;20198;-61
2022/05/03 09:54:26;;;;;;;16.27;5.32;;;21.40;63.80;;;;;;5049515;28;20248;-60
2022/05/03 09:56:54;;;;;;;9.23;4.40;;;21.70;63.50;;;;;;5049903;28;20214;-61
2022/05/03 09:59:20;;;;;;;11.30;4.80;;;21.90;62.70;;;;;;5039550;28;20295;-60
2022/05/03 10:01:47;;;;;;;17.63;6.00;;;22.00;61.60;;;;;;5048562;28;20277;-62
2022/05/03 10:04:13;;;;;;;7.70;4.30;;;21.90;60.40;;;;;;5049437;28;20256;-62
2022/05/03 10:06:40;;;;;;;18.45;4.93;;;21.90;60.10;;;;;;5048125;28;20641;-59
2022/05/03 10:09:07;;;;;;;7.68;3.80;;;21.90;60.10;;;;;;5049326;28;20201;-61
2022/05/03 10:11:36;;;;;;;10.20;4.18;;;21.70;60.40;;;;;;5049098;28;20244;-61
2022/05/03 10:14:02;;;;;;;16.67;5.53;;;21.50;59.40;;;;;;5049474;28;20304;-60
2022/05/03 10:22:04;;;;;;;11.65;3.83;;;21.70;59.40;;;;;;5048796;28;20284;-62
2022/05/03 10:24:31;;;;;;;22.35;4.57;;;22.00;57.70;;;;;;5048505;28;20197;-61
2022/05/03 10:27:06;;;;;;;24.88;5.10;;;22.00;58.90;;;;;;5050532;28;20174;-61
2022/05/03 10:29:36;;;;;;;7.75;4.30;;;22.10;57.50;;;;;;5049525;28;20893;-62
2022/05/03 10:32:09;;;;;;;10.60;4.07;;;21.80;57.20;;;;;;5048877;28;20601;-62
2022/05/03 10:34:42;;;;;;;12.93;4.28;;;21.90;56.70;;;;;;5049741;28;20170;-59
2022/05/03 10:37:16;;;;;;;6.95;3.17;;;22.00;55.60;;;;;;5050498;28;20185;-60
2022/05/03 10:39:58;;;;;;;7.10;3.95;;;22.00;55.70;;;;;;5048281;28;20616;-61
2022/05/03 10:42:28;;;;;;;12.40;4.40;;;21.60;55.10;;;;;;5049925;28;20561;-63
2022/05/03 10:44:53;;;;;;;13.68;4.25;;;21.80;55.30;;;;;;5050163;28;20178;-63
2022/05/03 10:47:21;;;;;;;14.95;4.88;;;22.50;56.10;;;;;;5049831;28;20509;-60
2022/05/03 10:50:15;;;;;;;7.55;3.25;;;22.80;53.10;;;;;;5048983;28;20216;-62
2022/05/03 10:52:59;;;;;;;8.00;2.67;;;23.10;51.80;;;;;;5049020;28;20192;-61
2022/05/03 10:55:27;;;;;;;10.05;3.63;;;22.90;53.20;;;;;;5049129;28;20192;-62
2022/05/03 10:58:19;;;;;;;6.68;3.30;;;23.20;52.10;;;;;;5050118;28;20210;-61
2022/05/03 11:01:14;;;;;;;7.38;3.50;;;23.10;52.40;;;;;;5049660;28;20262;-60
2022/05/03 11:03:52;;;;;;;11.57;4.10;;;23.20;51.10;;;;;;5047458;28;20274;-62
2022/05/03 11:06:26;;;;;;;10.43;4.35;;;23.00;52.50;;;;;;5049826;28;20175;-61
2022/05/03 11:11:44;;;;;;;3.17;2.30;;;23.40;50.60;;;;;;5049620;28;20182;-60
2022/05/03 11:14:16;;;;;;;7.03;3.53;;;23.70;48.90;;;;;;5052319;28;20288;-61
2022/05/03 11:16:43;;;;;;;6.53;2.80;;;23.70;48.80;;;;;;5053544;28;20234;-61
2022/05/03 11:19:14;;;;;;;8.90;3.00;;;24.10;48.60;;;;;;5053750;28;20214;-61
2022/05/03 11:21:40;;;;;;;5.60;3.35;;;24.50;49.80;;;;;;5053820;28;20237;-61
2022/05/03 11:24:24;;;;;;;10.65;4.13;;;24.80;47.80;;;;;;5052540;28;20537;-60
2022/05/03 11:26:52;;;;;;;18.98;4.30;;;25.80;46.00;;;;;;5053350;28;20507;-60
2022/05/03 11:29:19;;;;;;;8.10;3.35;;;27.10;43.50;;;;;;5052130;28;20182;-60
2022/05/03 11:31:49;;;;;;;9.07;3.50;;;28.10;42.90;;;;;;5053381;28;20171;-60
2022/05/03 11:34:17;;;;;;;7.78;3.10;;;29.40;40.50;;;;;;5051637;28;20271;-61
2022/05/03 11:36:47;;;;;;;9.18;3.20;;;29.80;38.90;;;;;;5053328;28;20226;-61
2022/05/03 11:39:14;;;;;;;8.25;2.97;;;30.70;36.60;;;;;;5052927;28;20218;-59
2022/05/03 11:41:42;;;;;;;5.68;3.05;;;31.40;35.60;;;;;;5053406;28;20210;-60
2022/05/03 11:44:09;;;;;;;25.10;6.07;;;32.50;35.80;;;;;;5053019;28;20236;-59
2022/05/03 11:46:37;;;;;;;11.98;3.85;;;33.30;36.30;;;;;;5053072;28;20186;-62
2022/05/03 11:49:05;;;;;;;11.23;4.18;;;33.40;34.50;;;;;;5033601;28;20206;-60
2022/05/03 11:57:20;;;;;;;80.75;8.65;;;32.40;33.20;;;;;;5032997;28;20194;-59
2022/05/03 11:59:48;;;;;;;18.25;5.18;;;32.40;34.30;;;;;;5047537;28;20255;-60
2022/05/03 12:02:20;;;;;;;16.00;4.45;;;31.30;34.30;;;;;;5053072;28;20182;-61
2022/05/03 12:05:04;;;;;;;8.98;3.72;;;29.90;35.60;;;;;;5052736;28;20190;-59
2022/05/03 12:07:38;;;;;;;16.00;4.65;;;27.60;38.20;;;;;;5052231;28;20555;-60
2022/05/03 12:10:21;;;;;;;13.18;3.63;;;26.30;40.40;;;;;;5052470;28;20181;-61
2022/05/03 12:13:02;;;;;;;9.88;3.72;;;25.10;41.30;;;;;;5050931;28;20194;-63
2022/05/03 12:15:31;;;;;;;14.93;4.60;;;24.20;42.40;;;;;;5050159;28;20667;-62
2022/05/03 12:18:03;;;;;;;14.90;4.47;;;23.40;43.90;;;;;;5053279;28;20226;-59
2022/05/03 12:20:51;;;;;;;9.27;4.15;;;22.90;44.20;;;;;;5052639;28;20182;-60
2022/05/03 12:23:22;;;;;;;10.80;4.00;;;22.70;44.30;;;;;;5052679;28;20292;-60
2022/05/03 12:25:53;;;;;;;9.30;3.65;;;22.30;44.70;;;;;;5049673;28;20542;-60
2022/05/03 12:28:20;;;;;;;15.00;4.63;;;21.90;44.60;;;;;;5052320;28;20186;-61
2022/05/03 12:30:55;;;;;;;15.00;4.13;;;21.90;45.50;;;;;;5047885;28;20205;-62
2022/05/03 12:33:24;;;;;;;10.32;4.00;;;22.00;45.50;;;;;;5041952;28;20276;-59
2022/05/03 12:35:50;;;;;;;8.68;3.45;;;21.90;44.40;;;;;;5032704;28;20317;-61
2022/05/03 12:38:18;;;;;;;9.00;3.63;;;21.90;44.80;;;;;;5047482;28;20300;-61
2022/05/03 12:40:49;;;;;;;15.98;4.60;;;22.30;44.80;;;;;;5038455;28;20201;-61
2022/05/03 12:43:17;;;;;;;10.07;4.20;;;23.10;44.90;;;;;;5044984;28;20190;-60
2022/05/03 12:45:55;;;;;;;13.95;4.15;;;23.90;46.10;;;;;;5046237;28;20737;-62
2022/05/03 12:48:21;;;;;;;10.07;4.63;;;25.00;46.20;;;;;;5050977;28;20226;-60
2022/05/03 12:50:47;;;;;;;14.77;4.57;;;25.70;45.50;;;;;;5050233;28;20804;-62
2022/05/03 12:53:14;;;;;;;13.20;3.83;;;25.70;44.50;;;;;;5031913;28;20287;-60
2022/05/03 12:55:39;;;;;;;11.48;3.90;;;25.20;45.60;;;;;;5043242;28;20643;-63
2022/05/03 13:00:51;;;;;;;9.88;4.00;;;24.30;46.70;;;;;;5052173;28;20243;-62
2022/05/03 13:03:17;;;;;;;8.02;3.90;;;24.60;47.30;;;;;;5049973;28;20265;-61
2022/05/03 13:05:43;;;;;;;16.88;4.45;;;25.70;44.00;;;;;;5051546;28;20345;-58
2022/05/03 13:08:09;;;;;;;7.75;3.05;;;26.10;43.00;;;;;;5044581;28;20199;-59
2022/05/03 13:10:34;;;;;;;6.60;3.80;;;28.40;40.40;;;;;;5031785;28;20225;-60
2022/05/03 13:13:03;;;;;;;6.65;3.35;;;30.20;39.10;;;;;;5051270;28;20193;-61
2022/05/03 13:15:29;;;;;;;7.15;2.88;;;31.40;37.30;;;;;;5050615;28;20194;-68
2022/05/03 13:17:54;;;;;;;8.95;3.33;;;31.50;35.90;;;;;;5051033;28;20536;-63
2022/05/03 13:20:20;;;;;;;16.17;7.85;;;31.10;36.30;;;;;;5050394;28;20194;-63
2022/05/03 13:22:46;;;;;;;18.67;3.45;;;29.80;36.70;;;;;;5048980;28;20719;-62
2022/05/03 13:25:12;;;;;;;17.40;4.75;;;27.90;37.30;;;;;;5051311;28;20186;-61
2022/05/03 13:27:38;;;;;;;8.15;3.75;;;26.80;38.70;;;;;;5050699;28;20628;-60
2022/05/03 13:30:05;;;;;;;12.82;3.80;;;26.00;39.10;;;;;;5054468;28;20208;-63
2022/05/03 13:32:31;;;;;;;5.70;2.80;;;25.50;40.80;;;;;;5055960;28;20695;-61
2022/05/03 13:34:57;;;;;;;12.90;4.53;;;25.10;40.60;;;;;;5050752;28;20644;-62